DAL1292 KLAX-KSFO
Flight info
| Callsign | DAL1292 |
|---|---|
| Flight time | 0h 53m |
| Altitude | 36000 |
| Route | SUMMR2 STOKD SERFR SERFR4 |
| Aircraft | A319/M-SDE3FGHIRWY/LB1 |
Departure
| Time | 2026-04-26 00:24 |
|---|---|
| Airport | Los Angeles International Airport (KLAX) |
Arrival
| Time | 2026-04-26 01:17 |
|---|---|
| Airport | San Francisco International Airport (KSFO) |
| Time | Latitude | Longitude | Altitude | Speed | Heading |
|---|---|---|---|---|---|
| 2026-04-25 23:54 | 33.94696 | -118.40335 | 97 ft | 0 kts | 260° |
| 2026-04-26 00:15 | 33.94698 | -118.40325 | 96 ft | 4 kts | 263° |
| 2026-04-26 00:16 | 33.94698 | -118.40293 | 95 ft | 4 kts | 281° |
| 2026-04-26 00:16 | 33.94690 | -118.40263 | 94 ft | 4 kts | 311° |
| 2026-04-26 00:16 | 33.94673 | -118.40249 | 94 ft | 1 kts | 352° |
| 2026-04-26 00:19 | 33.94691 | -118.40252 | 95 ft | 5 kts | 352° |
| 2026-04-26 00:19 | 33.94739 | -118.40260 | 95 ft | 6 kts | 353° |
| 2026-04-26 00:19 | 33.94784 | -118.40266 | 96 ft | 7 kts | 353° |
| 2026-04-26 00:20 | 33.94826 | -118.40282 | 98 ft | 7 kts | 338° |
| 2026-04-26 00:20 | 33.94878 | -118.40289 | 99 ft | 9 kts | 15° |
| 2026-04-26 00:20 | 33.94901 | -118.40230 | 100 ft | 8 kts | 81° |
| 2026-04-26 00:20 | 33.94911 | -118.40141 | 100 ft | 13 kts | 84° |
| 2026-04-26 00:21 | 33.94922 | -118.40031 | 99 ft | 14 kts | 82° |
| 2026-04-26 00:21 | 33.94940 | -118.39929 | 100 ft | 11 kts | 56° |
| 2026-04-26 00:21 | 33.94986 | -118.39910 | 105 ft | 3 kts | 1° |
| 2026-04-26 00:21 | 33.95010 | -118.39912 | 108 ft | 6 kts | 354° |
| 2026-04-26 00:22 | 33.95046 | -118.39940 | 109 ft | 6 kts | 270° |
| 2026-04-26 00:22 | 33.95042 | -118.39963 | 109 ft | 0 kts | 261° |
| 2026-04-26 00:23 | 33.95041 | -118.39971 | 109 ft | 4 kts | 261° |
| 2026-04-26 00:23 | 33.95014 | -118.40183 | 110 ft | 62 kts | 263° |
| 2026-04-26 00:23 | 33.94935 | -118.40989 | 108 ft | 129 kts | 263° |
| 2026-04-26 00:23 | 33.94803 | -118.42234 | 389 ft | 158 kts | 262° |
| 2026-04-26 00:24 | 33.94644 | -118.43571 | 1045 ft | 165 kts | 263° |
| 2026-04-26 00:24 | 33.94507 | -118.44967 | 1762 ft | 169 kts | 264° |
| 2026-04-26 00:24 | 33.94354 | -118.46440 | 2237 ft | 190 kts | 263° |
| 2026-04-26 00:24 | 33.94230 | -118.48143 | 2654 ft | 217 kts | 266° |
| 2026-04-26 00:25 | 33.94159 | -118.50049 | 3255 ft | 239 kts | 268° |
| 2026-04-26 00:25 | 33.94105 | -118.52116 | 4048 ft | 252 kts | 267° |
| 2026-04-26 00:25 | 33.94011 | -118.54256 | 5012 ft | 258 kts | 266° |
| 2026-04-26 00:25 | 33.93869 | -118.56428 | 6045 ft | 261 kts | 264° |
| 2026-04-26 00:26 | 33.93699 | -118.58610 | 7069 ft | 262 kts | 263° |
| 2026-04-26 00:26 | 33.93509 | -118.60799 | 8092 ft | 264 kts | 263° |
| 2026-04-26 00:26 | 33.93312 | -118.63005 | 9075 ft | 267 kts | 262° |
| 2026-04-26 00:26 | 33.93118 | -118.65244 | 10029 ft | 270 kts | 262° |
| 2026-04-26 00:27 | 33.92923 | -118.67580 | 10512 ft | 291 kts | 263° |
| 2026-04-26 00:27 | 33.92722 | -118.70056 | 11206 ft | 300 kts | 263° |
| 2026-04-26 00:27 | 33.92523 | -118.72569 | 12083 ft | 303 kts | 263° |
| 2026-04-26 00:27 | 33.92326 | -118.75107 | 13006 ft | 305 kts | 263° |
| 2026-04-26 00:28 | 33.92128 | -118.77658 | 13898 ft | 307 kts | 263° |
| 2026-04-26 00:28 | 33.91930 | -118.80223 | 14677 ft | 309 kts | 263° |
| 2026-04-26 00:28 | 33.91734 | -118.82784 | 15396 ft | 313 kts | 263° |
| 2026-04-26 00:28 | 33.91752 | -118.85431 | 16094 ft | 319 kts | 269° |
| 2026-04-26 00:29 | 33.91835 | -118.88118 | 16805 ft | 324 kts | 268° |
| 2026-04-26 00:29 | 33.91917 | -118.90842 | 17509 ft | 329 kts | 268° |
| 2026-04-26 00:29 | 33.91998 | -118.93612 | 18206 ft | 333 kts | 267° |
| 2026-04-26 00:29 | 33.92078 | -118.96410 | 18830 ft | 336 kts | 267° |
| 2026-04-26 00:30 | 33.92204 | -118.99238 | 19509 ft | 340 kts | 271° |
| 2026-04-26 00:30 | 33.92750 | -119.02049 | 20180 ft | 350 kts | 283° |
| 2026-04-26 00:30 | 33.93813 | -119.04730 | 20853 ft | 361 kts | 294° |
| 2026-04-26 00:30 | 33.95148 | -119.07297 | 21518 ft | 363 kts | 294° |
| 2026-04-26 00:31 | 33.96492 | -119.09886 | 22161 ft | 366 kts | 294° |
| 2026-04-26 00:31 | 33.97842 | -119.12499 | 22801 ft | 368 kts | 293° |
| 2026-04-26 00:31 | 33.99195 | -119.15128 | 23435 ft | 371 kts | 293° |
| 2026-04-26 00:31 | 34.00685 | -119.17700 | 23962 ft | 381 kts | 301° |
| 2026-04-26 00:32 | 34.02603 | -119.19995 | 24492 ft | 396 kts | 312° |
| 2026-04-26 00:32 | 34.04858 | -119.21981 | 24924 ft | 405 kts | 316° |
| 2026-04-26 00:32 | 34.09486 | -119.25936 | 25889 ft | 410 kts | 316° |
| 2026-04-26 00:33 | 34.11814 | -119.27930 | 26397 ft | 412 kts | 316° |
| 2026-04-26 00:33 | 34.14156 | -119.29945 | 26879 ft | 415 kts | 316° |
| 2026-04-26 00:33 | 34.16521 | -119.31984 | 27372 ft | 417 kts | 316° |
| 2026-04-26 00:33 | 34.18889 | -119.34028 | 27845 ft | 420 kts | 316° |
| 2026-04-26 00:34 | 34.21275 | -119.36090 | 28310 ft | 423 kts | 316° |
| 2026-04-26 00:34 | 34.23684 | -119.38173 | 28719 ft | 427 kts | 316° |
| 2026-04-26 00:34 | 34.26116 | -119.40274 | 29116 ft | 430 kts | 316° |
| 2026-04-26 00:34 | 34.28556 | -119.42382 | 29541 ft | 433 kts | 316° |
| 2026-04-26 00:35 | 34.31016 | -119.44509 | 29959 ft | 436 kts | 316° |
| 2026-04-26 00:35 | 34.33489 | -119.46646 | 30307 ft | 438 kts | 316° |
| 2026-04-26 00:35 | 34.35977 | -119.48796 | 30656 ft | 441 kts | 316° |
| 2026-04-26 00:35 | 34.38481 | -119.50962 | 31001 ft | 443 kts | 316° |
| 2026-04-26 00:36 | 34.40948 | -119.53191 | 31364 ft | 441 kts | 312° |
| 2026-04-26 00:36 | 34.43147 | -119.55738 | 31807 ft | 434 kts | 307° |
| 2026-04-26 00:36 | 34.45243 | -119.58330 | 32503 ft | 428 kts | 307° |
| 2026-04-26 00:36 | 34.47325 | -119.60890 | 33101 ft | 425 kts | 307° |
| 2026-04-26 00:37 | 34.49399 | -119.63430 | 33635 ft | 423 kts | 307° |
| 2026-04-26 00:37 | 34.51470 | -119.65971 | 33898 ft | 422 kts | 307° |
| 2026-04-26 00:37 | 34.55391 | -119.71177 | 33944 ft | 409 kts | 294° |
| 2026-04-26 00:38 | 34.56466 | -119.74286 | 33947 ft | 393 kts | 276° |
| 2026-04-26 00:38 | 34.56621 | -119.77520 | 33946 ft | 381 kts | 258° |
| 2026-04-26 00:38 | 34.55869 | -119.80559 | 33948 ft | 375 kts | 240° |
| 2026-04-26 00:38 | 34.54413 | -119.83166 | 33976 ft | 375 kts | 232° |
| 2026-04-26 00:39 | 34.51184 | -119.88158 | 33949 ft | 377 kts | 232° |
| 2026-04-26 00:39 | 34.48471 | -119.92308 | 33957 ft | 377 kts | 232° |
| 2026-04-26 00:40 | 34.45302 | -119.98597 | 33953 ft | 380 kts | 254° |
| 2026-04-26 00:40 | 34.45075 | -120.01807 | 33965 ft | 388 kts | 271° |
| 2026-04-26 00:40 | 34.45737 | -120.05021 | 33992 ft | 404 kts | 289° |
| 2026-04-26 00:41 | 34.47338 | -120.07919 | 34113 ft | 427 kts | 308° |
| 2026-04-26 00:41 | 34.49772 | -120.10128 | 34271 ft | 446 kts | 322° |
| 2026-04-26 00:41 | 34.51538 | -120.11409 | 34448 ft | 448 kts | 322° |
| 2026-04-26 00:41 | 34.55135 | -120.13978 | 34858 ft | 449 kts | 322° |
| 2026-04-26 00:42 | 34.56920 | -120.15244 | 35079 ft | 449 kts | 322° |
| 2026-04-26 00:42 | 34.59617 | -120.17156 | 35415 ft | 448 kts | 322° |
| 2026-04-26 00:42 | 34.62301 | -120.19064 | 35739 ft | 447 kts | 322° |
| 2026-04-26 00:42 | 34.64984 | -120.20987 | 35928 ft | 448 kts | 322° |
| 2026-04-26 00:43 | 34.70291 | -120.24808 | 35970 ft | 434 kts | 322° |
| 2026-04-26 00:43 | 34.75431 | -120.28525 | 35995 ft | 434 kts | 322° |
| 2026-04-26 00:44 | 34.80707 | -120.32373 | 35977 ft | 450 kts | 322° |
| 2026-04-26 00:44 | 34.86152 | -120.36334 | 35981 ft | 459 kts | 323° |
| 2026-04-26 00:45 | 34.91659 | -120.40314 | 35991 ft | 461 kts | 323° |
| 2026-04-26 00:45 | 34.97168 | -120.44304 | 35981 ft | 460 kts | 323° |
| 2026-04-26 00:46 | 35.02654 | -120.48299 | 35980 ft | 459 kts | 323° |
| 2026-04-26 00:46 | 35.08136 | -120.52302 | 35986 ft | 459 kts | 323° |
| 2026-04-26 00:47 | 35.13626 | -120.56313 | 35988 ft | 460 kts | 323° |
| 2026-04-26 00:47 | 35.19116 | -120.60322 | 35973 ft | 460 kts | 323° |
| 2026-04-26 00:48 | 35.24614 | -120.64347 | 35982 ft | 460 kts | 323° |
| 2026-04-26 00:48 | 35.30050 | -120.68341 | 35971 ft | 454 kts | 323° |
| 2026-04-26 00:49 | 35.35478 | -120.72330 | 35972 ft | 455 kts | 323° |
| 2026-04-26 00:49 | 35.40898 | -120.76318 | 35980 ft | 455 kts | 323° |
| 2026-04-26 00:50 | 35.46294 | -120.80305 | 35983 ft | 456 kts | 323° |
| 2026-04-26 00:50 | 35.51480 | -120.84708 | 35984 ft | 451 kts | 317° |
| 2026-04-26 00:51 | 35.56493 | -120.89357 | 35986 ft | 452 kts | 317° |
| 2026-04-26 00:51 | 35.61499 | -120.94016 | 35978 ft | 452 kts | 318° |
| 2026-04-26 00:52 | 35.66511 | -120.98680 | 35983 ft | 452 kts | 318° |
| 2026-04-26 00:52 | 35.71529 | -121.03352 | 35979 ft | 452 kts | 318° |
| 2026-04-26 00:53 | 35.76537 | -121.08034 | 35979 ft | 452 kts | 318° |
| 2026-04-26 00:53 | 35.81547 | -121.12713 | 35976 ft | 452 kts | 318° |
| 2026-04-26 00:54 | 35.86560 | -121.17403 | 35975 ft | 452 kts | 318° |
| 2026-04-26 00:54 | 35.91558 | -121.22090 | 35982 ft | 452 kts | 318° |
| 2026-04-26 00:55 | 35.96568 | -121.26800 | 35979 ft | 452 kts | 319° |
| 2026-04-26 00:55 | 35.99055 | -121.29139 | 35618 ft | 462 kts | 319° |
| 2026-04-26 00:55 | 36.01627 | -121.31558 | 35063 ft | 468 kts | 319° |
| 2026-04-26 00:56 | 36.04236 | -121.34011 | 34484 ft | 471 kts | 319° |
| 2026-04-26 00:56 | 36.06845 | -121.36431 | 33888 ft | 470 kts | 322° |
| 2026-04-26 00:56 | 36.09600 | -121.38615 | 33248 ft | 468 kts | 325° |
| 2026-04-26 00:56 | 36.12346 | -121.40755 | 32655 ft | 464 kts | 326° |
| 2026-04-26 00:57 | 36.15063 | -121.42871 | 32044 ft | 460 kts | 326° |
| 2026-04-26 00:57 | 36.17761 | -121.44974 | 31427 ft | 456 kts | 326° |
| 2026-04-26 00:57 | 36.20425 | -121.47057 | 30817 ft | 451 kts | 327° |
| 2026-04-26 00:57 | 36.23068 | -121.49131 | 30189 ft | 448 kts | 327° |
| 2026-04-26 00:58 | 36.25691 | -121.51188 | 29510 ft | 444 kts | 327° |
| 2026-04-26 00:58 | 36.28285 | -121.53216 | 28934 ft | 439 kts | 328° |
| 2026-04-26 00:58 | 36.30852 | -121.55222 | 28346 ft | 433 kts | 328° |
| 2026-04-26 00:58 | 36.33385 | -121.57207 | 27774 ft | 429 kts | 328° |
| 2026-04-26 00:59 | 36.35894 | -121.59178 | 27200 ft | 425 kts | 328° |
| 2026-04-26 00:59 | 36.38382 | -121.61133 | 26637 ft | 421 kts | 328° |
| 2026-04-26 00:59 | 36.40845 | -121.63068 | 26078 ft | 418 kts | 327° |
| 2026-04-26 00:59 | 36.43299 | -121.64998 | 25541 ft | 415 kts | 328° |
| 2026-04-26 01:00 | 36.45715 | -121.66902 | 25012 ft | 411 kts | 327° |
| 2026-04-26 01:00 | 36.48121 | -121.68798 | 24503 ft | 408 kts | 327° |
| 2026-04-26 01:00 | 36.50511 | -121.70682 | 23985 ft | 405 kts | 327° |
| 2026-04-26 01:00 | 36.52890 | -121.72557 | 23501 ft | 402 kts | 327° |
| 2026-04-26 01:01 | 36.55214 | -121.74396 | 22981 ft | 399 kts | 326° |
| 2026-04-26 01:01 | 36.57536 | -121.76235 | 22483 ft | 395 kts | 326° |
| 2026-04-26 01:01 | 36.59847 | -121.78069 | 22016 ft | 391 kts | 326° |
| 2026-04-26 01:01 | 36.62125 | -121.79874 | 21634 ft | 385 kts | 326° |
| 2026-04-26 01:02 | 36.64382 | -121.81659 | 21091 ft | 383 kts | 326° |
| 2026-04-26 01:02 | 36.66611 | -121.83424 | 20634 ft | 379 kts | 326° |
| 2026-04-26 01:02 | 36.68833 | -121.85190 | 20139 ft | 376 kts | 326° |
| 2026-04-26 01:02 | 36.71025 | -121.86935 | 19658 ft | 373 kts | 326° |
| 2026-04-26 01:03 | 36.73238 | -121.88605 | 19204 ft | 371 kts | 331° |
| 2026-04-26 01:03 | 36.75636 | -121.89802 | 18667 ft | 372 kts | 342° |
| 2026-04-26 01:03 | 36.78163 | -121.90534 | 18167 ft | 371 kts | 347° |
| 2026-04-26 01:03 | 36.80683 | -121.91228 | 17597 ft | 369 kts | 347° |
| 2026-04-26 01:04 | 36.83162 | -121.91920 | 17062 ft | 365 kts | 347° |
| 2026-04-26 01:04 | 36.85645 | -121.92618 | 16563 ft | 360 kts | 347° |
| 2026-04-26 01:04 | 36.88065 | -121.93297 | 15829 ft | 354 kts | 347° |
| 2026-04-26 01:04 | 36.90444 | -121.93965 | 15248 ft | 348 kts | 348° |
| 2026-04-26 01:05 | 36.92792 | -121.94627 | 14711 ft | 345 kts | 348° |
| 2026-04-26 01:05 | 36.95135 | -121.95290 | 14174 ft | 345 kts | 347° |
| 2026-04-26 01:05 | 36.97426 | -121.96053 | 13862 ft | 336 kts | 344° |
| 2026-04-26 01:05 | 36.99633 | -121.96893 | 13156 ft | 329 kts | 342° |
| 2026-04-26 01:06 | 37.01795 | -121.97768 | 12551 ft | 324 kts | 342° |
| 2026-04-26 01:06 | 37.03928 | -121.98642 | 12046 ft | 323 kts | 341° |
| 2026-04-26 01:06 | 37.06033 | -121.99497 | 11550 ft | 322 kts | 341° |
| 2026-04-26 01:06 | 37.08164 | -122.00353 | 11034 ft | 321 kts | 341° |
| 2026-04-26 01:07 | 37.10312 | -122.01204 | 10526 ft | 320 kts | 341° |
| 2026-04-26 01:07 | 37.12389 | -122.02019 | 10318 ft | 310 kts | 341° |
| 2026-04-26 01:07 | 37.14402 | -122.02802 | 10119 ft | 295 kts | 341° |
| 2026-04-26 01:07 | 37.16336 | -122.03554 | 9804 ft | 287 kts | 340° |
| 2026-04-26 01:08 | 37.18246 | -122.04301 | 9672 ft | 287 kts | 340° |
| 2026-04-26 01:08 | 37.20126 | -122.05036 | 9522 ft | 279 kts | 340° |
| 2026-04-26 01:08 | 37.21967 | -122.05758 | 9191 ft | 276 kts | 340° |
| 2026-04-26 01:08 | 37.23792 | -122.06477 | 8826 ft | 273 kts | 340° |
| 2026-04-26 01:09 | 37.25599 | -122.07188 | 8455 ft | 272 kts | 340° |
| 2026-04-26 01:09 | 37.27401 | -122.07898 | 8079 ft | 270 kts | 340° |
| 2026-04-26 01:09 | 37.29186 | -122.08600 | 7713 ft | 268 kts | 340° |
| 2026-04-26 01:09 | 37.30954 | -122.09297 | 7353 ft | 266 kts | 340° |
| 2026-04-26 01:10 | 37.32711 | -122.09991 | 6997 ft | 264 kts | 340° |
| 2026-04-26 01:10 | 37.34459 | -122.10680 | 6627 ft | 262 kts | 340° |
| 2026-04-26 01:10 | 37.36194 | -122.11361 | 6269 ft | 260 kts | 340° |
| 2026-04-26 01:10 | 37.37887 | -122.12024 | 5911 ft | 256 kts | 341° |
| 2026-04-26 01:11 | 37.39581 | -122.12635 | 5602 ft | 248 kts | 342° |
| 2026-04-26 01:11 | 37.41208 | -122.13185 | 5320 ft | 236 kts | 341° |
| 2026-04-26 01:11 | 37.42765 | -122.13703 | 5029 ft | 228 kts | 342° |
| 2026-04-26 01:11 | 37.44327 | -122.14225 | 4750 ft | 227 kts | 341° |
| 2026-04-26 01:12 | 37.45817 | -122.14727 | 4467 ft | 225 kts | 341° |
| 2026-04-26 01:12 | 37.47329 | -122.15243 | 4193 ft | 224 kts | 341° |
| 2026-04-26 01:12 | 37.48830 | -122.15760 | 3917 ft | 224 kts | 340° |
| 2026-04-26 01:12 | 37.50327 | -122.16279 | 3643 ft | 222 kts | 341° |
| 2026-04-26 01:13 | 37.51812 | -122.16795 | 3371 ft | 220 kts | 340° |
| 2026-04-26 01:13 | 37.53145 | -122.17655 | 3116 ft | 212 kts | 317° |
| 2026-04-26 01:13 | 37.54084 | -122.19015 | 2883 ft | 202 kts | 297° |
| 2026-04-26 01:13 | 37.54742 | -122.20565 | 2651 ft | 199 kts | 295° |
| 2026-04-26 01:14 | 37.55386 | -122.22089 | 2440 ft | 193 kts | 295° |
| 2026-04-26 01:14 | 37.55995 | -122.23530 | 2161 ft | 181 kts | 294° |
| 2026-04-26 01:14 | 37.56575 | -122.24909 | 1927 ft | 176 kts | 294° |
| 2026-04-26 01:14 | 37.57147 | -122.26267 | 1704 ft | 174 kts | 294° |
| 2026-04-26 01:15 | 37.57709 | -122.27601 | 1476 ft | 167 kts | 294° |
| 2026-04-26 01:15 | 37.58230 | -122.28836 | 1266 ft | 152 kts | 295° |
| 2026-04-26 01:15 | 37.58690 | -122.29927 | 1074 ft | 133 kts | 295° |
| 2026-04-26 01:15 | 37.59111 | -122.30930 | 897 ft | 124 kts | 295° |
| 2026-04-26 01:16 | 37.59503 | -122.31869 | 692 ft | 122 kts | 296° |
| 2026-04-26 01:16 | 37.59909 | -122.32836 | 524 ft | 123 kts | 295° |
| 2026-04-26 01:16 | 37.60309 | -122.33784 | 385 ft | 121 kts | 295° |
| 2026-04-26 01:16 | 37.60701 | -122.34713 | 242 ft | 120 kts | 293° |
| 2026-04-26 01:17 | 37.61089 | -122.35646 | 107 ft | 121 kts | 295° |
| 2026-04-26 01:17 | 37.61466 | -122.36530 | 23 ft | 101 kts | 296° |
| 2026-04-26 01:17 | 37.61711 | -122.37127 | 22 ft | 52 kts | 298° |
| 2026-04-26 01:17 | 37.61845 | -122.37445 | 22 ft | 36 kts | 297° |
| 2026-04-26 01:18 | 37.61950 | -122.37701 | 23 ft | 28 kts | 297° |
| 2026-04-26 01:18 | 37.62005 | -122.37850 | 22 ft | 13 kts | 275° |
| 2026-04-26 01:18 | 37.61968 | -122.37934 | 25 ft | 11 kts | 226° |
| 2026-04-26 01:18 | 37.61912 | -122.37995 | 22 ft | 9 kts | 203° |
| 2026-04-26 01:19 | 37.61844 | -122.37987 | 22 ft | 11 kts | 154° |
| 2026-04-26 01:19 | 37.61773 | -122.37949 | 22 ft | 12 kts | 167° |
| 2026-04-26 01:19 | 37.61690 | -122.37951 | 22 ft | 12 kts | 193° |
| 2026-04-26 01:19 | 37.61623 | -122.37992 | 22 ft | 8 kts | 207° |
| 2026-04-26 01:20 | 37.61583 | -122.38019 | 23 ft | 5 kts | 207° |
| 2026-04-26 01:20 | 37.61550 | -122.38041 | 22 ft | 5 kts | 211° |
| 2026-04-26 01:20 | 37.61538 | -122.38085 | 22 ft | 6 kts | 282° |
| 2026-04-26 01:20 | 37.61555 | -122.38131 | 22 ft | 4 kts | 297° |
| 2026-04-26 01:21 | 37.61567 | -122.38161 | 22 ft | 4 kts | 296° |
| 2026-04-26 01:21 | 37.61580 | -122.38193 | 24 ft | 4 kts | 298° |
| 2026-04-26 01:21 | 37.61588 | -122.38212 | 23 ft | 1 kts | 298° |
| 2026-04-26 01:21 | 37.61590 | -122.38216 | 23 ft | 0 kts | 298° |
| 2026-04-26 01:22 | 37.61593 | -122.38223 | 22 ft | 3 kts | 296° |
| 2026-04-26 01:22 | 37.61586 | -122.38244 | 22 ft | 3 kts | 222° |
| 2026-04-26 01:23 | 37.61567 | -122.38261 | 22 ft | 4 kts | 217° |
| 2026-04-26 01:23 | 37.61552 | -122.38275 | 22 ft | 2 kts | 217° |
| 2026-04-26 01:23 | 37.61550 | -122.38277 | 22 ft | 0 kts | 217° |